Terminal Aerodrome Forecast
Issued by NWS Bismarck, ND

Home | Current Version | Previous Version | Graphics & Text | Print | Product List | Glossary On
Versions: 1 2 3 4 5 6 7 8 9 10 11 12 13 14 15 16
000
FTUS43 KBIS 251100
TAFISN
TAF
KISN 251132Z 2512/2612 32014KT P6SM BKN015 OVC030
     FM252000 31012KT P6SM BKN035
     FM252300 30007KT P6SM SCT035 BKN110
     FM260300 24004KT P6SM SCT080 SCT100=

USA.gov is the U.S. government's official web portal to all federal, state and local government web resources and services.